sensor_id;sensor_type;location;lat;lon;timestamp;pressure;altitude;pressure_sealevel;temperature;humidity
60611;BME280;46439;51.164;13.572;2023-10-08T00:01:19;99873.91;;;20.39;100.00
60611;BME280;46439;51.164;13.572;2023-10-08T00:03:50;99877.05;;;20.36;100.00
60611;BME280;46439;51.164;13.572;2023-10-08T00:06:20;99878.95;;;20.38;100.00
60611;BME280;46439;51.164;13.572;2023-10-08T00:08:52;99877.66;;;20.40;100.00
60611;BME280;46439;51.164;13.572;2023-10-08T00:11:28;99877.40;;;20.41;100.00
60611;BME280;46439;51.164;13.572;2023-10-08T00:13:59;99877.95;;;20.38;100.00
60611;BME280;46439;51.164;13.572;2023-10-08T00:16:29;99876.91;;;20.35;100.00
60611;BME280;46439;51.164;13.572;2023-10-08T00:19:00;99880.08;;;20.33;100.00
60611;BME280;46439;51.164;13.572;2023-10-08T00:21:36;99881.06;;;20.34;100.00
60611;BME280;46439;51.164;13.572;2023-10-08T00:24:07;99879.23;;;20.33;100.00
60611;BME280;46439;51.164;13.572;2023-10-08T00:26:37;99888.14;;;20.32;100.00
60611;BME280;46439;51.164;13.572;2023-10-08T00:29:09;99882.59;;;20.31;100.00
60611;BME280;46439;51.164;13.572;2023-10-08T00:31:44;99880.73;;;20.28;100.00
60611;BME280;46439;51.164;13.572;2023-10-08T00:34:14;99886.79;;;20.24;100.00
60611;BME280;46439;51.164;13.572;2023-10-08T00:36:44;99890.60;;;20.17;100.00
60611;BME280;46439;51.164;13.572;2023-10-08T00:39:14;99896.30;;;20.09;100.00
60611;BME280;46439;51.164;13.572;2023-10-08T00:41:52;99901.40;;;20.04;100.00
60611;BME280;46439;51.164;13.572;2023-10-08T00:44:26;99892.82;;;19.97;100.00
60611;BME280;46439;51.164;13.572;2023-10-08T00:46:58;99880.64;;;19.91;100.00
60611;BME280;46439;51.164;13.572;2023-10-08T00:49:30;99886.05;;;19.84;100.00
60611;BME280;46439;51.164;13.572;2023-10-08T00:52:12;99888.00;;;19.79;100.00
60611;BME280;46439;51.164;13.572;2023-10-08T00:54:42;99894.15;;;19.77;100.00
60611;BME280;46439;51.164;13.572;2023-10-08T00:57:28;99908.30;;;19.72;100.00
60611;BME280;46439;51.164;13.572;2023-10-08T00:59:58;99911.91;;;19.66;100.00
60611;BME280;46439;51.164;13.572;2023-10-08T01:02:28;99918.83;;;19.63;100.00
60611;BME280;46439;51.164;13.572;2023-10-08T01:05:11;99919.30;;;19.57;100.00
60611;BME280;46439;51.164;13.572;2023-10-08T01:07:41;99915.83;;;19.45;100.00
60611;BME280;46439;51.164;13.572;2023-10-08T01:10:13;99913.81;;;19.34;100.00
60611;BME280;46439;51.164;13.572;2023-10-08T01:12:48;99922.40;;;19.30;100.00
60611;BME280;46439;51.164;13.572;2023-10-08T01:15:22;99924.97;;;19.20;100.00
60611;BME280;46439;51.164;13.572;2023-10-08T01:17:57;99931.23;;;19.14;100.00
60611;BME280;46439;51.164;13.572;2023-10-08T01:20:29;99934.71;;;19.07;100.00
60611;BME280;46439;51.164;13.572;2023-10-08T01:23:13;99935.54;;;18.99;100.00
60611;BME280;46439;51.164;13.572;2023-10-08T01:25:45;99948.12;;;18.88;100.00
60611;BME280;46439;51.164;13.572;2023-10-08T01:28:19;99957.71;;;18.79;100.00
60611;BME280;46439;51.164;13.572;2023-10-08T01:31:01;99962.30;;;18.42;100.00
60611;BME280;46439;51.164;13.572;2023-10-08T01:33:32;99980.98;;;18.03;100.00
60611;BME280;46439;51.164;13.572;2023-10-08T01:36:06;99992.92;;;17.63;100.00
60611;BME280;46439;51.164;13.572;2023-10-08T01:38:41;100001.08;;;17.26;100.00
60611;BME280;46439;51.164;13.572;2023-10-08T01:41:10;100009.64;;;16.87;100.00
60611;BME280;46439;51.164;13.572;2023-10-08T01:43:47;100018.59;;;16.55;100.00
60611;BME280;46439;51.164;13.572;2023-10-08T01:46:15;100021.86;;;16.33;100.00
60611;BME280;46439;51.164;13.572;2023-10-08T01:48:44;100035.14;;;16.20;100.00
60611;BME280;46439;51.164;13.572;2023-10-08T01:51:13;100032.07;;;16.10;100.00
60611;BME280;46439;51.164;13.572;2023-10-08T01:53:53;100028.33;;;15.96;100.00
60611;BME280;46439;51.164;13.572;2023-10-08T01:56:23;100034.67;;;15.80;100.00
60611;BME280;46439;51.164;13.572;2023-10-08T01:58:52;100041.30;;;15.58;100.00
60611;BME280;46439;51.164;13.572;2023-10-08T02:01:22;100058.46;;;15.46;100.00
60611;BME280;46439;51.164;13.572;2023-10-08T02:03:50;100066.41;;;15.36;100.00
60611;BME280;46439;51.164;13.572;2023-10-08T02:06:19;100079.96;;;15.29;100.00
60611;BME280;46439;51.164;13.572;2023-10-08T02:08:49;100078.91;;;15.27;100.00
60611;BME280;46439;51.164;13.572;2023-10-08T02:11:17;100091.13;;;15.21;100.00
60611;BME280;46439;51.164;13.572;2023-10-08T02:13:46;100095.13;;;15.17;100.00
60611;BME280;46439;51.164;13.572;2023-10-08T02:16:19;100065.53;;;15.10;100.00
60611;BME280;46439;51.164;13.572;2023-10-08T02:18:47;100070.95;;;15.09;100.00
60611;BME280;46439;51.164;13.572;2023-10-08T02:21:18;100081.89;;;15.08;100.00
60611;BME280;46439;51.164;13.572;2023-10-08T02:23:47;100098.21;;;15.11;100.00
60611;BME280;46439;51.164;13.572;2023-10-08T02:26:16;100101.14;;;15.16;100.00
60611;BME280;46439;51.164;13.572;2023-10-08T02:28:47;100104.46;;;15.24;100.00
60611;BME280;46439;51.164;13.572;2023-10-08T02:31:16;100108.05;;;15.24;100.00
60611;BME280;46439;51.164;13.572;2023-10-08T02:33:46;100119.29;;;15.31;100.00
60611;BME280;46439;51.164;13.572;2023-10-08T02:36:15;100136.47;;;15.41;100.00
60611;BME280;46439;51.164;13.572;2023-10-08T02:38:43;100153.52;;;15.44;100.00
60611;BME280;46439;51.164;13.572;2023-10-08T02:41:17;100157.88;;;15.50;100.00
60611;BME280;46439;51.164;13.572;2023-10-08T02:43:45;100149.51;;;15.51;100.00
60611;BME280;46439;51.164;13.572;2023-10-08T02:46:16;100155.30;;;15.52;100.00
60611;BME280;46439;51.164;13.572;2023-10-08T02:48:46;100153.79;;;15.53;100.00
60611;BME280;46439;51.164;13.572;2023-10-08T02:51:15;100175.11;;;15.46;100.00
60611;BME280;46439;51.164;13.572;2023-10-08T02:53:43;100175.23;;;15.32;100.00
60611;BME280;46439;51.164;13.572;2023-10-08T02:56:12;100183.73;;;15.32;100.00
60611;BME280;46439;51.164;13.572;2023-10-08T02:58:44;100183.96;;;15.23;100.00
60611;BME280;46439;51.164;13.572;2023-10-08T03:01:12;100195.93;;;15.17;100.00
60611;BME280;46439;51.164;13.572;2023-10-08T03:03:42;100205.36;;;15.11;100.00
60611;BME280;46439;51.164;13.572;2023-10-08T03:06:11;100214.73;;;15.03;100.00
60611;BME280;46439;51.164;13.572;2023-10-08T03:08:43;100237.59;;;14.97;100.00
60611;BME280;46439;51.164;13.572;2023-10-08T03:11:12;100236.95;;;14.87;100.00
60611;BME280;46439;51.164;13.572;2023-10-08T03:13:49;100247.40;;;14.69;100.00
60611;BME280;46439;51.164;13.572;2023-10-08T03:16:20;100256.80;;;14.48;100.00
60611;BME280;46439;51.164;13.572;2023-10-08T03:18:56;100275.08;;;14.25;100.00
60611;BME280;46439;51.164;13.572;2023-10-08T03:21:25;100296.33;;;14.03;100.00
60611;BME280;46439;51.164;13.572;2023-10-08T03:24:07;100303.36;;;13.71;100.00
60611;BME280;46439;51.164;13.572;2023-10-08T03:26:41;100308.57;;;13.43;100.00
60611;BME280;46439;51.164;13.572;2023-10-08T03:29:13;100312.40;;;13.24;100.00
60611;BME280;46439;51.164;13.572;2023-10-08T03:31:44;100313.08;;;13.15;100.00
60611;BME280;46439;51.164;13.572;2023-10-08T03:34:17;100318.36;;;13.09;100.00
60611;BME280;46439;51.164;13.572;2023-10-08T03:36:47;100325.23;;;12.98;100.00
60611;BME280;46439;51.164;13.572;2023-10-08T03:39:18;100335.96;;;12.90;100.00
60611;BME280;46439;51.164;13.572;2023-10-08T03:41:47;100344.33;;;12.76;100.00
60611;BME280;46439;51.164;13.572;2023-10-08T03:44:34;100346.31;;;12.59;100.00
60611;BME280;46439;51.164;13.572;2023-10-08T03:47:05;100350.58;;;12.51;100.00
60611;BME280;46439;51.164;13.572;2023-10-08T03:49:39;100358.13;;;12.51;100.00
60611;BME280;46439;51.164;13.572;2023-10-08T03:52:13;100354.63;;;12.48;100.00
60611;BME280;46439;51.164;13.572;2023-10-08T03:54:42;100360.51;;;12.44;100.00
60611;BME280;46439;51.164;13.572;2023-10-08T03:57:17;100367.30;;;12.36;100.00
60611;BME280;46439;51.164;13.572;2023-10-08T03:59:54;100370.51;;;12.28;100.00
60611;BME280;46439;51.164;13.572;2023-10-08T04:02:26;100379.17;;;12.22;100.00
60611;BME280;46439;51.164;13.572;2023-10-08T04:05:09;100383.14;;;12.27;100.00
60611;BME280;46439;51.164;13.572;2023-10-08T04:07:48;100372.40;;;12.29;100.00
60611;BME280;46439;51.164;13.572;2023-10-08T04:10:55;100368.02;;;12.27;100.00
60611;BME280;46439;51.164;13.572;2023-10-08T04:13:37;100371.03;;;12.35;100.00
60611;BME280;46439;51.164;13.572;2023-10-08T04:16:13;100368.61;;;12.39;100.00
60611;BME280;46439;51.164;13.572;2023-10-08T04:18:47;100376.89;;;12.40;100.00
60611;BME280;46439;51.164;13.572;2023-10-08T04:21:20;100368.66;;;12.41;100.00
60611;BME280;46439;51.164;13.572;2023-10-08T04:23:49;100368.50;;;12.44;100.00
60611;BME280;46439;51.164;13.572;2023-10-08T04:26:20;100374.84;;;12.51;100.00
60611;BME280;46439;51.164;13.572;2023-10-08T04:28:55;100369.49;;;12.60;100.00
60611;BME280;46439;51.164;13.572;2023-10-08T04:31:26;100380.19;;;12.77;100.00
60611;BME280;46439;51.164;13.572;2023-10-08T04:34:12;100377.83;;;12.92;100.00
60611;BME280;46439;51.164;13.572;2023-10-08T04:36:50;100376.99;;;13.03;100.00
60611;BME280;46439;51.164;13.572;2023-10-08T04:39:21;100376.05;;;12.99;100.00
60611;BME280;46439;51.164;13.572;2023-10-08T04:42:02;100393.05;;;12.93;100.00
60611;BME280;46439;51.164;13.572;2023-10-08T04:44:42;100398.92;;;12.93;100.00
60611;BME280;46439;51.164;13.572;2023-10-08T04:47:10;100397.24;;;12.90;100.00
60611;BME280;46439;51.164;13.572;2023-10-08T04:49:59;100423.34;;;12.84;100.00
60611;BME280;46439;51.164;13.572;2023-10-08T04:52:27;100437.13;;;12.75;100.00
60611;BME280;46439;51.164;13.572;2023-10-08T04:54:56;100458.11;;;12.67;100.00
60611;BME280;46439;51.164;13.572;2023-10-08T04:57:24;100461.23;;;12.62;100.00
60611;BME280;46439;51.164;13.572;2023-10-08T04:59:58;100452.29;;;12.64;100.00
60611;BME280;46439;51.164;13.572;2023-10-08T05:02:27;100450.37;;;12.67;100.00
60611;BME280;46439;51.164;13.572;2023-10-08T05:05:17;100467.35;;;12.68;100.00
60611;BME280;46439;51.164;13.572;2023-10-08T05:07:46;100473.52;;;12.71;100.00
60611;BME280;46439;51.164;13.572;2023-10-08T05:10:15;100463.96;;;12.67;100.00
60611;BME280;46439;51.164;13.572;2023-10-08T05:12:53;100463.88;;;12.61;100.00
60611;BME280;46439;51.164;13.572;2023-10-08T05:15:34;100468.89;;;12.66;100.00
60611;BME280;46439;51.164;13.572;2023-10-08T05:18:09;100466.79;;;12.74;100.00
60611;BME280;46439;51.164;13.572;2023-10-08T05:20:47;100471.39;;;12.75;100.00
60611;BME280;46439;51.164;13.572;2023-10-08T05:23:19;100478.64;;;12.76;100.00
60611;BME280;46439;51.164;13.572;2023-10-08T05:25:58;100489.08;;;12.78;100.00
60611;BME280;46439;51.164;13.572;2023-10-08T05:28:38;100490.41;;;12.82;100.00
60611;BME280;46439;51.164;13.572;2023-10-08T05:31:30;100487.75;;;12.88;100.00
60611;BME280;46439;51.164;13.572;2023-10-08T05:34:15;100494.88;;;12.97;100.00
60611;BME280;46439;51.164;13.572;2023-10-08T05:36:51;100496.29;;;13.06;100.00
60611;BME280;46439;51.164;13.572;2023-10-08T05:39:29;100488.02;;;13.10;100.00
60611;BME280;46439;51.164;13.572;2023-10-08T05:42:09;100484.36;;;13.23;100.00
60611;BME280;46439;51.164;13.572;2023-10-08T05:45:00;100502.89;;;13.32;100.00
60611;BME280;46439;51.164;13.572;2023-10-08T05:47:38;100510.56;;;13.39;100.00
60611;BME280;46439;51.164;13.572;2023-10-08T05:50:10;100509.94;;;13.44;100.00
60611;BME280;46439;51.164;13.572;2023-10-08T05:52:45;100524.20;;;13.44;100.00
60611;BME280;46439;51.164;13.572;2023-10-08T05:55:27;100525.50;;;13.42;100.00
60611;BME280;46439;51.164;13.572;2023-10-08T05:57:59;100517.76;;;13.40;100.00
60611;BME280;46439;51.164;13.572;2023-10-08T06:00:53;100532.45;;;13.34;100.00
60611;BME280;46439;51.164;13.572;2023-10-08T06:03:36;100556.52;;;13.31;100.00
60611;BME280;46439;51.164;13.572;2023-10-08T06:06:24;100566.52;;;13.25;100.00
60611;BME280;46439;51.164;13.572;2023-10-08T06:09:05;100555.24;;;13.10;100.00
60611;BME280;46439;51.164;13.572;2023-10-08T06:11:37;100540.02;;;13.11;100.00
60611;BME280;46439;51.164;13.572;2023-10-08T06:14:13;100538.05;;;13.24;100.00
60611;BME280;46439;51.164;13.572;2023-10-08T06:16:42;100550.27;;;13.33;100.00
60611;BME280;46439;51.164;13.572;2023-10-08T06:19:15;100561.35;;;13.40;100.00
60611;BME280;46439;51.164;13.572;2023-10-08T06:21:44;100555.52;;;13.48;100.00
60611;BME280;46439;51.164;13.572;2023-10-08T06:24:13;100548.93;;;13.56;100.00
60611;BME280;46439;51.164;13.572;2023-10-08T06:26:45;100551.96;;;13.63;100.00
60611;BME280;46439;51.164;13.572;2023-10-08T06:29:17;100554.15;;;13.66;100.00
60611;BME280;46439;51.164;13.572;2023-10-08T06:31:56;100558.75;;;13.73;100.00
60611;BME280;46439;51.164;13.572;2023-10-08T06:34:25;100564.45;;;13.76;100.00
60611;BME280;46439;51.164;13.572;2023-10-08T06:36:58;100564.01;;;13.80;100.00
60611;BME280;46439;51.164;13.572;2023-10-08T06:39:27;100570.46;;;13.85;100.00
60611;BME280;46439;51.164;13.572;2023-10-08T06:42:01;100573.80;;;13.90;100.00
60611;BME280;46439;51.164;13.572;2023-10-08T06:44:31;100583.43;;;13.91;100.00
60611;BME280;46439;51.164;13.572;2023-10-08T06:46:59;100593.52;;;13.91;100.00
60611;BME280;46439;51.164;13.572;2023-10-08T06:49:28;100615.77;;;13.95;100.00
60611;BME280;46439;51.164;13.572;2023-10-08T06:51:59;100619.77;;;13.95;100.00
60611;BME280;46439;51.164;13.572;2023-10-08T06:54:29;100618.33;;;13.96;100.00
60611;BME280;46439;51.164;13.572;2023-10-08T06:56:58;100620.24;;;13.98;100.00
60611;BME280;46439;51.164;13.572;2023-10-08T06:59:28;100612.16;;;14.01;100.00
60611;BME280;46439;51.164;13.572;2023-10-08T07:01:59;100618.49;;;13.99;100.00
60611;BME280;46439;51.164;13.572;2023-10-08T07:04:28;100622.63;;;13.98;100.00
60611;BME280;46439;51.164;13.572;2023-10-08T07:06:57;100633.40;;;13.99;100.00
60611;BME280;46439;51.164;13.572;2023-10-08T07:09:28;100639.39;;;13.97;100.00
60611;BME280;46439;51.164;13.572;2023-10-08T07:11:57;100641.02;;;13.94;100.00
60611;BME280;46439;51.164;13.572;2023-10-08T07:14:26;100640.85;;;13.90;100.00
60611;BME280;46439;51.164;13.572;2023-10-08T07:16:57;100644.42;;;13.81;100.00
60611;BME280;46439;51.164;13.572;2023-10-08T07:19:30;100650.11;;;13.78;100.00
60611;BME280;46439;51.164;13.572;2023-10-08T07:22:19;100659.09;;;13.84;100.00
60611;BME280;46439;51.164;13.572;2023-10-08T07:24:51;100663.20;;;13.87;100.00
60611;BME280;46439;51.164;13.572;2023-10-08T07:27:20;100670.50;;;13.90;100.00
60611;BME280;46439;51.164;13.572;2023-10-08T07:30:00;100677.95;;;13.91;100.00
60611;BME280;46439;51.164;13.572;2023-10-08T07:32:30;100690.78;;;13.88;100.00
60611;BME280;46439;51.164;13.572;2023-10-08T07:34:59;100695.02;;;13.83;100.00
60611;BME280;46439;51.164;13.572;2023-10-08T07:37:47;100700.42;;;13.81;100.00
60611;BME280;46439;51.164;13.572;2023-10-08T07:40:16;100702.30;;;13.81;100.00
60611;BME280;46439;51.164;13.572;2023-10-08T07:42:45;100700.32;;;13.85;100.00
60611;BME280;46439;51.164;13.572;2023-10-08T07:45:14;100698.05;;;13.87;100.00
60611;BME280;46439;51.164;13.572;2023-10-08T07:47:45;100708.44;;;13.89;100.00
60611;BME280;46439;51.164;13.572;2023-10-08T07:50:14;100702.70;;;13.93;100.00
60611;BME280;46439;51.164;13.572;2023-10-08T07:52:44;100700.09;;;13.98;100.00
60611;BME280;46439;51.164;13.572;2023-10-08T07:55:13;100702.54;;;14.03;100.00
60611;BME280;46439;51.164;13.572;2023-10-08T07:57:45;100710.27;;;14.05;100.00
60611;BME280;46439;51.164;13.572;2023-10-08T08:00:16;100722.09;;;14.08;100.00
60611;BME280;46439;51.164;13.572;2023-10-08T08:02:51;100732.43;;;14.09;100.00
60611;BME280;46439;51.164;13.572;2023-10-08T08:05:20;100738.66;;;14.07;100.00
60611;BME280;46439;51.164;13.572;2023-10-08T08:07:49;100748.14;;;14.05;100.00
60611;BME280;46439;51.164;13.572;2023-10-08T08:10:18;100750.77;;;14.02;100.00
60611;BME280;46439;51.164;13.572;2023-10-08T08:12:47;100758.02;;;14.09;100.00
60611;BME280;46439;51.164;13.572;2023-10-08T08:15:19;100752.11;;;14.14;100.00
60611;BME280;46439;51.164;13.572;2023-10-08T08:17:48;100755.90;;;14.19;100.00
60611;BME280;46439;51.164;13.572;2023-10-08T08:20:17;100755.15;;;14.19;100.00
60611;BME280;46439;51.164;13.572;2023-10-08T08:22:46;100762.83;;;14.23;100.00
60611;BME280;46439;51.164;13.572;2023-10-08T08:25:18;100757.41;;;14.21;100.00
60611;BME280;46439;51.164;13.572;2023-10-08T08:28:03;100749.86;;;14.22;100.00
60611;BME280;46439;51.164;13.572;2023-10-08T08:30:35;100753.83;;;14.24;100.00
60611;BME280;46439;51.164;13.572;2023-10-08T08:33:05;100744.62;;;14.26;100.00
60611;BME280;46439;51.164;13.572;2023-10-08T08:35:38;100742.27;;;14.26;100.00
60611;BME280;46439;51.164;13.572;2023-10-08T08:38:07;100748.75;;;14.26;100.00
60611;BME280;46439;51.164;13.572;2023-10-08T08:40:37;100757.62;;;14.24;100.00
60611;BME280;46439;51.164;13.572;2023-10-08T08:43:06;100758.14;;;14.25;100.00
60611;BME280;46439;51.164;13.572;2023-10-08T08:45:36;100759.86;;;14.33;100.00
60611;BME280;46439;51.164;13.572;2023-10-08T08:48:09;100763.09;;;14.39;100.00
60611;BME280;46439;51.164;13.572;2023-10-08T08:50:39;100768.89;;;14.39;100.00
60611;BME280;46439;51.164;13.572;2023-10-08T08:53:08;100766.85;;;14.36;100.00
60611;BME280;46439;51.164;13.572;2023-10-08T08:55:37;100771.95;;;14.34;100.00
60611;BME280;46439;51.164;13.572;2023-10-08T08:58:08;100774.66;;;14.29;100.00
60611;BME280;46439;51.164;13.572;2023-10-08T09:00:39;100774.47;;;14.32;100.00
60611;BME280;46439;51.164;13.572;2023-10-08T09:03:09;100776.17;;;14.37;100.00
60611;BME280;46439;51.164;13.572;2023-10-08T09:05:41;100780.10;;;14.39;100.00
60611;BME280;46439;51.164;13.572;2023-10-08T09:08:10;100778.84;;;14.39;100.00
60611;BME280;46439;51.164;13.572;2023-10-08T09:10:40;100790.69;;;14.35;100.00
60611;BME280;46439;51.164;13.572;2023-10-08T09:13:22;100789.11;;;14.30;100.00
60611;BME280;46439;51.164;13.572;2023-10-08T09:15:51;100792.57;;;14.30;100.00
60611;BME280;46439;51.164;13.572;2023-10-08T09:18:22;100790.95;;;14.35;100.00
60611;BME280;46439;51.164;13.572;2023-10-08T09:20:51;100782.86;;;14.45;100.00
60611;BME280;46439;51.164;13.572;2023-10-08T09:23:20;100776.82;;;14.52;100.00
60611;BME280;46439;51.164;13.572;2023-10-08T09:25:52;100777.15;;;14.53;100.00
60611;BME280;46439;51.164;13.572;2023-10-08T09:28:32;100782.30;;;14.57;100.00
60611;BME280;46439;51.164;13.572;2023-10-08T09:31:03;100790.11;;;14.62;100.00
60611;BME280;46439;51.164;13.572;2023-10-08T09:33:33;100797.29;;;14.69;100.00
60611;BME280;46439;51.164;13.572;2023-10-08T09:36:02;100798.42;;;14.70;100.00
60611;BME280;46439;51.164;13.572;2023-10-08T09:38:34;100802.27;;;14.72;100.00
60611;BME280;46439;51.164;13.572;2023-10-08T09:41:03;100805.05;;;14.75;100.00
60611;BME280;46439;51.164;13.572;2023-10-08T09:43:32;100811.15;;;14.81;100.00
60611;BME280;46439;51.164;13.572;2023-10-08T09:46:11;100818.95;;;14.77;100.00
60611;BME280;46439;51.164;13.572;2023-10-08T09:48:44;100821.77;;;14.80;100.00
60611;BME280;46439;51.164;13.572;2023-10-08T09:51:16;100824.03;;;14.84;100.00
60611;BME280;46439;51.164;13.572;2023-10-08T09:53:51;100825.47;;;14.90;100.00
60611;BME280;46439;51.164;13.572;2023-10-08T09:56:21;100825.70;;;14.91;100.00
60611;BME280;46439;51.164;13.572;2023-10-08T09:58:51;100827.05;;;14.91;100.00
60611;BME280;46439;51.164;13.572;2023-10-08T10:01:21;100830.23;;;14.93;100.00
60611;BME280;46439;51.164;13.572;2023-10-08T10:03:50;100837.83;;;14.84;100.00
60611;BME280;46439;51.164;13.572;2023-10-08T10:06:20;100838.00;;;14.84;100.00
60611;BME280;46439;51.164;13.572;2023-10-08T10:08:49;100835.71;;;14.95;100.00
60611;BME280;46439;51.164;13.572;2023-10-08T10:11:18;100841.83;;;14.91;100.00
60611;BME280;46439;51.164;13.572;2023-10-08T10:13:50;100841.45;;;14.99;100.00
60611;BME280;46439;51.164;13.572;2023-10-08T10:16:28;100837.63;;;15.09;100.00
60611;BME280;46439;51.164;13.572;2023-10-08T10:18:59;100834.20;;;15.22;100.00
60611;BME280;46439;51.164;13.572;2023-10-08T10:21:31;100839.38;;;15.29;100.00
60611;BME280;46439;51.164;13.572;2023-10-08T10:23:59;100839.27;;;15.39;100.00
60611;BME280;46439;51.164;13.572;2023-10-08T10:26:29;100844.63;;;15.40;100.00
60611;BME280;46439;51.164;13.572;2023-10-08T10:29:22;100845.09;;;15.44;100.00
60611;BME280;46439;51.164;13.572;2023-10-08T10:31:54;100845.80;;;15.52;100.00
60611;BME280;46439;51.164;13.572;2023-10-08T10:34:26;100843.88;;;15.62;100.00
60611;BME280;46439;51.164;13.572;2023-10-08T10:37:00;100847.49;;;15.68;100.00
60611;BME280;46439;51.164;13.572;2023-10-08T10:39:37;100850.61;;;15.65;100.00
60611;BME280;46439;51.164;13.572;2023-10-08T10:42:10;100856.95;;;15.67;100.00
60611;BME280;46439;51.164;13.572;2023-10-08T10:44:56;100857.90;;;15.66;100.00
60611;BME280;46439;51.164;13.572;2023-10-08T10:47:27;100855.30;;;15.68;100.00
60611;BME280;46439;51.164;13.572;2023-10-08T10:49:55;100855.04;;;15.74;100.00
60611;BME280;46439;51.164;13.572;2023-10-08T10:52:25;100852.03;;;15.80;100.00
60611;BME280;46439;51.164;13.572;2023-10-08T10:55:03;100847.36;;;15.84;100.00
60611;BME280;46439;51.164;13.572;2023-10-08T10:57:46;100853.09;;;15.92;100.00
60611;BME280;46439;51.164;13.572;2023-10-08T11:00:23;100855.76;;;15.99;100.00
60611;BME280;46439;51.164;13.572;2023-10-08T11:03:02;100854.66;;;16.06;100.00
60611;BME280;46439;51.164;13.572;2023-10-08T11:05:33;100856.09;;;16.12;100.00
60611;BME280;46439;51.164;13.572;2023-10-08T11:08:06;100855.13;;;16.21;100.00
60611;BME280;46439;51.164;13.572;2023-10-08T11:10:38;100850.70;;;16.14;100.00
60611;BME280;46439;51.164;13.572;2023-10-08T11:13:07;100850.77;;;16.13;100.00
60611;BME280;46439;51.164;13.572;2023-10-08T11:15:48;100852.70;;;16.13;100.00
60611;BME280;46439;51.164;13.572;2023-10-08T11:18:19;100856.33;;;16.07;100.00
60611;BME280;46439;51.164;13.572;2023-10-08T11:20:50;100858.20;;;16.07;100.00
60611;BME280;46439;51.164;13.572;2023-10-08T11:23:45;100861.36;;;16.12;100.00
60611;BME280;46439;51.164;13.572;2023-10-08T11:26:21;100858.73;;;16.16;100.00
60611;BME280;46439;51.164;13.572;2023-10-08T11:29:00;100856.06;;;16.18;100.00
60611;BME280;46439;51.164;13.572;2023-10-08T11:31:31;100854.11;;;16.23;100.00
60611;BME280;46439;51.164;13.572;2023-10-08T11:34:04;100853.12;;;16.29;100.00
60611;BME280;46439;51.164;13.572;2023-10-08T11:36:38;100850.13;;;16.33;100.00
60611;BME280;46439;51.164;13.572;2023-10-08T11:39:24;100843.93;;;16.42;100.00
60611;BME280;46439;51.164;13.572;2023-10-08T11:42:00;100839.55;;;16.46;100.00
60611;BME280;46439;51.164;13.572;2023-10-08T11:44:51;100843.08;;;16.50;100.00
60611;BME280;46439;51.164;13.572;2023-10-08T11:47:20;100843.65;;;16.57;100.00
60611;BME280;46439;51.164;13.572;2023-10-08T11:49:50;100835.08;;;16.64;100.00
60611;BME280;46439;51.164;13.572;2023-10-08T11:52:22;100834.02;;;16.66;100.00
60611;BME280;46439;51.164;13.572;2023-10-08T11:54:52;100830.92;;;16.70;100.00
60611;BME280;46439;51.164;13.572;2023-10-08T11:57:21;100834.02;;;16.74;100.00
60611;BME280;46439;51.164;13.572;2023-10-08T11:59:50;100830.58;;;16.74;100.00
60611;BME280;46439;51.164;13.572;2023-10-08T12:02:22;100830.02;;;16.74;100.00
60611;BME280;46439;51.164;13.572;2023-10-08T12:04:51;100831.23;;;16.73;100.00
60611;BME280;46439;51.164;13.572;2023-10-08T12:07:19;100826.38;;;16.74;100.00
60611;BME280;46439;51.164;13.572;2023-10-08T12:09:48;100823.11;;;16.74;100.00
60611;BME280;46439;51.164;13.572;2023-10-08T12:12:17;100821.05;;;16.74;100.00
60611;BME280;46439;51.164;13.572;2023-10-08T12:14:51;100819.45;;;16.79;100.00
60611;BME280;46439;51.164;13.572;2023-10-08T12:17:23;100821.42;;;16.80;100.00
60611;BME280;46439;51.164;13.572;2023-10-08T12:20:07;100819.20;;;16.80;100.00
60611;BME280;46439;51.164;13.572;2023-10-08T12:22:51;100813.88;;;16.84;100.00
60611;BME280;46439;51.164;13.572;2023-10-08T12:25:20;100814.67;;;16.87;100.00
60611;BME280;46439;51.164;13.572;2023-10-08T12:27:48;100805.65;;;16.86;100.00
60611;BME280;46439;51.164;13.572;2023-10-08T12:30:17;100803.59;;;16.79;100.00
60611;BME280;46439;51.164;13.572;2023-10-08T12:32:46;100815.75;;;16.72;100.00
60611;BME280;46439;51.164;13.572;2023-10-08T12:35:15;100823.73;;;16.68;100.00
60611;BME280;46439;51.164;13.572;2023-10-08T12:37:43;100827.02;;;16.49;100.00
60611;BME280;46439;51.164;13.572;2023-10-08T12:40:14;100832.08;;;16.42;100.00
60611;BME280;46439;51.164;13.572;2023-10-08T12:42:51;100831.86;;;16.47;100.00
60611;BME280;46439;51.164;13.572;2023-10-08T12:45:20;100828.89;;;16.57;100.00
60611;BME280;46439;51.164;13.572;2023-10-08T12:47:50;100828.12;;;16.60;100.00
60611;BME280;46439;51.164;13.572;2023-10-08T12:50:20;100820.41;;;16.72;100.00
60611;BME280;46439;51.164;13.572;2023-10-08T12:52:57;100810.05;;;16.74;100.00
60611;BME280;46439;51.164;13.572;2023-10-08T12:55:26;100800.35;;;16.81;100.00
60611;BME280;46439;51.164;13.572;2023-10-08T12:57:55;100794.70;;;16.87;100.00
60611;BME280;46439;51.164;13.572;2023-10-08T13:00:25;100804.05;;;16.85;100.00